sensor_id;sensor_type;location;lat;lon;timestamp;P1;durP1;ratioP1;P2;durP2;ratioP2
52942;SDS011;38809;53.300;6.614;2024-03-06T00:01:06;12.25;;;9.40;;
52942;SDS011;38809;53.300;6.614;2024-03-06T00:03:32;13.27;;;9.50;;
52942;SDS011;38809;53.300;6.614;2024-03-06T00:05:58;11.93;;;8.77;;
52942;SDS011;38809;53.300;6.614;2024-03-06T00:08:24;13.32;;;9.38;;
52942;SDS011;38809;53.300;6.614;2024-03-06T00:10:53;14.27;;;9.10;;
52942;SDS011;38809;53.300;6.614;2024-03-06T00:13:19;11.70;;;8.70;;
52942;SDS011;38809;53.300;6.614;2024-03-06T00:15:45;13.25;;;9.50;;
52942;SDS011;38809;53.300;6.614;2024-03-06T00:18:11;14.95;;;8.52;;
52942;SDS011;38809;53.300;6.614;2024-03-06T00:20:37;12.60;;;8.85;;
52942;SDS011;38809;53.300;6.614;2024-03-06T00:23:05;13.93;;;9.05;;
52942;SDS011;38809;53.300;6.614;2024-03-06T00:25:31;13.63;;;8.57;;
52942;SDS011;38809;53.300;6.614;2024-03-06T00:27:58;11.05;;;8.07;;
52942;SDS011;38809;53.300;6.614;2024-03-06T00:30:24;10.98;;;8.23;;
52942;SDS011;38809;53.300;6.614;2024-03-06T00:32:50;14.25;;;8.65;;
52942;SDS011;38809;53.300;6.614;2024-03-06T00:35:16;14.90;;;8.98;;
52942;SDS011;38809;53.300;6.614;2024-03-06T00:37:42;12.35;;;8.52;;
52942;SDS011;38809;53.300;6.614;2024-03-06T00:40:08;11.90;;;7.70;;
52942;SDS011;38809;53.300;6.614;2024-03-06T00:42:34;11.73;;;8.85;;
52942;SDS011;38809;53.300;6.614;2024-03-06T00:45:01;11.43;;;8.52;;
52942;SDS011;38809;53.300;6.614;2024-03-06T00:47:27;12.15;;;8.65;;
52942;SDS011;38809;53.300;6.614;2024-03-06T00:49:54;13.35;;;8.93;;
52942;SDS011;38809;53.300;6.614;2024-03-06T00:52:20;11.73;;;8.77;;
52942;SDS011;38809;53.300;6.614;2024-03-06T00:54:46;13.43;;;8.93;;
52942;SDS011;38809;53.300;6.614;2024-03-06T00:57:12;14.82;;;9.23;;
52942;SDS011;38809;53.300;6.614;2024-03-06T00:59:38;15.23;;;9.70;;
52942;SDS011;38809;53.300;6.614;2024-03-06T01:02:04;11.52;;;9.00;;
52942;SDS011;38809;53.300;6.614;2024-03-06T01:04:31;11.45;;;7.95;;
52942;SDS011;38809;53.300;6.614;2024-03-06T01:06:57;16.90;;;10.00;;
52942;SDS011;38809;53.300;6.614;2024-03-06T01:09:23;12.77;;;9.02;;
52942;SDS011;38809;53.300;6.614;2024-03-06T01:11:49;13.07;;;9.82;;
52942;SDS011;38809;53.300;6.614;2024-03-06T01:14:16;12.65;;;9.60;;
52942;SDS011;38809;53.300;6.614;2024-03-06T01:16:42;15.63;;;10.23;;
52942;SDS011;38809;53.300;6.614;2024-03-06T01:19:08;14.65;;;9.65;;
52942;SDS011;38809;53.300;6.614;2024-03-06T01:21:34;14.20;;;10.25;;
52942;SDS011;38809;53.300;6.614;2024-03-06T01:24:01;15.30;;;11.00;;
52942;SDS011;38809;53.300;6.614;2024-03-06T01:26:27;13.82;;;9.65;;
52942;SDS011;38809;53.300;6.614;2024-03-06T01:28:53;13.05;;;10.50;;
52942;SDS011;38809;53.300;6.614;2024-03-06T01:31:19;15.05;;;9.82;;
52942;SDS011;38809;53.300;6.614;2024-03-06T01:33:45;15.73;;;10.30;;
52942;SDS011;38809;53.300;6.614;2024-03-06T01:36:11;16.27;;;11.63;;
52942;SDS011;38809;53.300;6.614;2024-03-06T01:38:38;15.25;;;10.65;;
52942;SDS011;38809;53.300;6.614;2024-03-06T01:41:04;14.38;;;9.80;;
52942;SDS011;38809;53.300;6.614;2024-03-06T01:43:36;15.27;;;10.57;;
52942;SDS011;38809;53.300;6.614;2024-03-06T01:46:02;14.82;;;10.00;;
52942;SDS011;38809;53.300;6.614;2024-03-06T01:48:28;13.88;;;10.45;;
52942;SDS011;38809;53.300;6.614;2024-03-06T01:50:57;15.88;;;9.98;;
52942;SDS011;38809;53.300;6.614;2024-03-06T01:53:24;14.73;;;10.82;;
52942;SDS011;38809;53.300;6.614;2024-03-06T01:55:50;14.65;;;10.40;;
52942;SDS011;38809;53.300;6.614;2024-03-06T01:58:16;15.30;;;10.35;;
52942;SDS011;38809;53.300;6.614;2024-03-06T02:00:43;14.45;;;10.05;;
52942;SDS011;38809;53.300;6.614;2024-03-06T02:03:10;15.00;;;10.10;;
52942;SDS011;38809;53.300;6.614;2024-03-06T02:05:37;15.43;;;10.27;;
52942;SDS011;38809;53.300;6.614;2024-03-06T02:08:03;17.13;;;10.50;;
52942;SDS011;38809;53.300;6.614;2024-03-06T02:10:30;13.80;;;10.20;;
52942;SDS011;38809;53.300;6.614;2024-03-06T02:12:56;14.00;;;9.95;;
52942;SDS011;38809;53.300;6.614;2024-03-06T02:17:49;12.93;;;9.25;;
52942;SDS011;38809;53.300;6.614;2024-03-06T02:20:16;14.00;;;9.25;;
52942;SDS011;38809;53.300;6.614;2024-03-06T02:22:42;14.02;;;10.25;;
52942;SDS011;38809;53.300;6.614;2024-03-06T02:25:08;14.73;;;10.05;;
52942;SDS011;38809;53.300;6.614;2024-03-06T02:27:34;13.07;;;9.82;;
52942;SDS011;38809;53.300;6.614;2024-03-06T02:30:00;12.85;;;9.88;;
52942;SDS011;38809;53.300;6.614;2024-03-06T02:32:26;15.35;;;11.07;;
52942;SDS011;38809;53.300;6.614;2024-03-06T02:34:53;12.38;;;10.10;;
52942;SDS011;38809;53.300;6.614;2024-03-06T02:37:19;13.98;;;9.48;;
52942;SDS011;38809;53.300;6.614;2024-03-06T02:39:45;14.38;;;10.43;;
52942;SDS011;38809;53.300;6.614;2024-03-06T02:42:11;14.07;;;10.18;;
52942;SDS011;38809;53.300;6.614;2024-03-06T02:44:37;15.15;;;10.65;;
52942;SDS011;38809;53.300;6.614;2024-03-06T02:47:03;13.90;;;9.95;;
52942;SDS011;38809;53.300;6.614;2024-03-06T02:49:29;13.63;;;9.82;;
52942;SDS011;38809;53.300;6.614;2024-03-06T02:51:56;14.80;;;10.52;;
52942;SDS011;38809;53.300;6.614;2024-03-06T02:54:22;12.95;;;10.60;;
52942;SDS011;38809;53.300;6.614;2024-03-06T02:56:51;15.05;;;10.23;;
52942;SDS011;38809;53.300;6.614;2024-03-06T02:59:17;12.50;;;9.38;;
52942;SDS011;38809;53.300;6.614;2024-03-06T03:01:44;13.40;;;9.95;;
52942;SDS011;38809;53.300;6.614;2024-03-06T03:04:10;13.52;;;9.82;;
52942;SDS011;38809;53.300;6.614;2024-03-06T03:06:36;15.32;;;10.77;;
52942;SDS011;38809;53.300;6.614;2024-03-06T03:09:02;14.75;;;10.13;;
52942;SDS011;38809;53.300;6.614;2024-03-06T03:11:29;13.95;;;10.77;;
52942;SDS011;38809;53.300;6.614;2024-03-06T03:13:55;16.67;;;10.43;;
52942;SDS011;38809;53.300;6.614;2024-03-06T03:16:22;16.88;;;11.80;;
52942;SDS011;38809;53.300;6.614;2024-03-06T03:18:48;14.25;;;10.02;;
52942;SDS011;38809;53.300;6.614;2024-03-06T03:21:14;13.80;;;10.57;;
52942;SDS011;38809;53.300;6.614;2024-03-06T03:26:07;15.32;;;10.27;;
52942;SDS011;38809;53.300;6.614;2024-03-06T03:28:37;14.38;;;10.65;;
52942;SDS011;38809;53.300;6.614;2024-03-06T03:31:04;15.52;;;10.98;;
52942;SDS011;38809;53.300;6.614;2024-03-06T03:33:30;14.85;;;10.32;;
52942;SDS011;38809;53.300;6.614;2024-03-06T03:35:56;15.80;;;10.95;;
52942;SDS011;38809;53.300;6.614;2024-03-06T03:38:22;16.02;;;11.57;;
52942;SDS011;38809;53.300;6.614;2024-03-06T03:40:48;14.02;;;11.02;;
52942;SDS011;38809;53.300;6.614;2024-03-06T03:43:14;15.18;;;11.25;;
52942;SDS011;38809;53.300;6.614;2024-03-06T03:45:41;16.42;;;11.77;;
52942;SDS011;38809;53.300;6.614;2024-03-06T03:48:07;16.55;;;11.15;;
52942;SDS011;38809;53.300;6.614;2024-03-06T03:50:33;13.80;;;10.10;;
52942;SDS011;38809;53.300;6.614;2024-03-06T03:52:59;14.70;;;11.32;;
52942;SDS011;38809;53.300;6.614;2024-03-06T03:55:29;13.93;;;10.98;;
52942;SDS011;38809;53.300;6.614;2024-03-06T03:57:55;15.77;;;11.40;;
52942;SDS011;38809;53.300;6.614;2024-03-06T04:00:22;16.75;;;11.77;;
52942;SDS011;38809;53.300;6.614;2024-03-06T04:02:48;14.23;;;11.43;;
52942;SDS011;38809;53.300;6.614;2024-03-06T04:05:14;16.90;;;12.15;;
52942;SDS011;38809;53.300;6.614;2024-03-06T04:07:40;14.82;;;11.70;;
52942;SDS011;38809;53.300;6.614;2024-03-06T04:10:06;18.25;;;11.70;;
52942;SDS011;38809;53.300;6.614;2024-03-06T04:12:36;16.52;;;11.88;;
52942;SDS011;38809;53.300;6.614;2024-03-06T04:15:03;15.57;;;11.45;;
52942;SDS011;38809;53.300;6.614;2024-03-06T04:17:29;16.17;;;11.18;;
52942;SDS011;38809;53.300;6.614;2024-03-06T04:19:55;16.00;;;12.35;;
52942;SDS011;38809;53.300;6.614;2024-03-06T04:22:21;16.58;;;11.32;;
52942;SDS011;38809;53.300;6.614;2024-03-06T04:24:47;14.93;;;11.23;;
52942;SDS011;38809;53.300;6.614;2024-03-06T04:27:13;15.82;;;12.07;;
52942;SDS011;38809;53.300;6.614;2024-03-06T04:29:41;17.88;;;12.00;;
52942;SDS011;38809;53.300;6.614;2024-03-06T04:32:07;19.02;;;12.00;;
52942;SDS011;38809;53.300;6.614;2024-03-06T04:34:33;16.65;;;12.10;;
52942;SDS011;38809;53.300;6.614;2024-03-06T04:37:00;17.88;;;12.82;;
52942;SDS011;38809;53.300;6.614;2024-03-06T04:39:27;17.80;;;11.60;;
52942;SDS011;38809;53.300;6.614;2024-03-06T04:41:53;15.98;;;12.05;;
52942;SDS011;38809;53.300;6.614;2024-03-06T04:44:19;17.63;;;11.70;;
52942;SDS011;38809;53.300;6.614;2024-03-06T04:46:45;16.58;;;12.43;;
52942;SDS011;38809;53.300;6.614;2024-03-06T04:49:11;16.00;;;11.70;;
52942;SDS011;38809;53.300;6.614;2024-03-06T04:51:37;16.98;;;12.02;;
52942;SDS011;38809;53.300;6.614;2024-03-06T04:54:03;15.60;;;11.88;;
52942;SDS011;38809;53.300;6.614;2024-03-06T04:56:29;14.68;;;10.63;;
52942;SDS011;38809;53.300;6.614;2024-03-06T04:58:56;15.25;;;11.63;;
52942;SDS011;38809;53.300;6.614;2024-03-06T05:01:22;16.23;;;12.25;;
52942;SDS011;38809;53.300;6.614;2024-03-06T05:03:48;17.00;;;11.85;;
52942;SDS011;38809;53.300;6.614;2024-03-06T05:06:15;15.45;;;11.70;;
52942;SDS011;38809;53.300;6.614;2024-03-06T05:08:41;15.32;;;10.75;;
52942;SDS011;38809;53.300;6.614;2024-03-06T05:11:07;15.07;;;11.85;;
52942;SDS011;38809;53.300;6.614;2024-03-06T05:13:33;18.20;;;12.48;;
52942;SDS011;38809;53.300;6.614;2024-03-06T05:15:59;19.25;;;12.65;;
52942;SDS011;38809;53.300;6.614;2024-03-06T05:18:25;16.00;;;12.32;;
52942;SDS011;38809;53.300;6.614;2024-03-06T05:20:51;15.88;;;11.90;;
52942;SDS011;38809;53.300;6.614;2024-03-06T05:23:17;16.45;;;11.65;;
52942;SDS011;38809;53.300;6.614;2024-03-06T05:25:44;15.50;;;11.45;;
52942;SDS011;38809;53.300;6.614;2024-03-06T05:28:10;16.55;;;12.02;;
52942;SDS011;38809;53.300;6.614;2024-03-06T05:30:36;16.15;;;12.23;;
52942;SDS011;38809;53.300;6.614;2024-03-06T05:33:02;17.00;;;12.30;;
52942;SDS011;38809;53.300;6.614;2024-03-06T05:35:28;16.92;;;12.02;;
52942;SDS011;38809;53.300;6.614;2024-03-06T05:37:54;15.98;;;11.70;;
52942;SDS011;38809;53.300;6.614;2024-03-06T05:40:20;15.73;;;11.82;;
52942;SDS011;38809;53.300;6.614;2024-03-06T05:42:46;17.10;;;12.27;;
52942;SDS011;38809;53.300;6.614;2024-03-06T05:45:12;15.98;;;12.10;;
52942;SDS011;38809;53.300;6.614;2024-03-06T05:47:39;17.88;;;12.20;;
52942;SDS011;38809;53.300;6.614;2024-03-06T05:52:31;18.05;;;12.70;;
52942;SDS011;38809;53.300;6.614;2024-03-06T05:54:58;19.13;;;12.50;;
52942;SDS011;38809;53.300;6.614;2024-03-06T05:57:24;15.63;;;12.65;;
52942;SDS011;38809;53.300;6.614;2024-03-06T05:59:50;17.15;;;12.25;;
52942;SDS011;38809;53.300;6.614;2024-03-06T06:02:16;18.83;;;12.85;;
52942;SDS011;38809;53.300;6.614;2024-03-06T06:04:44;19.15;;;12.77;;
52942;SDS011;38809;53.300;6.614;2024-03-06T06:07:10;18.38;;;12.32;;
52942;SDS011;38809;53.300;6.614;2024-03-06T06:09:36;17.65;;;12.13;;
52942;SDS011;38809;53.300;6.614;2024-03-06T06:12:03;17.88;;;12.75;;
52942;SDS011;38809;53.300;6.614;2024-03-06T06:14:29;15.63;;;11.38;;
52942;SDS011;38809;53.300;6.614;2024-03-06T06:16:58;18.08;;;12.80;;
52942;SDS011;38809;53.300;6.614;2024-03-06T06:19:24;18.33;;;12.50;;
52942;SDS011;38809;53.300;6.614;2024-03-06T06:21:53;19.73;;;12.40;;
52942;SDS011;38809;53.300;6.614;2024-03-06T06:24:20;16.25;;;12.50;;
52942;SDS011;38809;53.300;6.614;2024-03-06T06:26:46;17.52;;;13.52;;
52942;SDS011;38809;53.300;6.614;2024-03-06T06:29:12;16.50;;;12.73;;
52942;SDS011;38809;53.300;6.614;2024-03-06T06:31:38;18.00;;;12.55;;
52942;SDS011;38809;53.300;6.614;2024-03-06T06:34:05;16.27;;;11.80;;
52942;SDS011;38809;53.300;6.614;2024-03-06T06:36:31;14.95;;;11.15;;
52942;SDS011;38809;53.300;6.614;2024-03-06T06:38:57;18.00;;;12.43;;
52942;SDS011;38809;53.300;6.614;2024-03-06T06:41:23;15.77;;;11.88;;
52942;SDS011;38809;53.300;6.614;2024-03-06T06:43:50;16.35;;;12.40;;
52942;SDS011;38809;53.300;6.614;2024-03-06T06:46:19;16.02;;;12.13;;
52942;SDS011;38809;53.300;6.614;2024-03-06T06:48:46;17.10;;;12.70;;
52942;SDS011;38809;53.300;6.614;2024-03-06T06:51:14;17.25;;;12.30;;
52942;SDS011;38809;53.300;6.614;2024-03-06T06:53:40;17.73;;;13.02;;
52942;SDS011;38809;53.300;6.614;2024-03-06T06:56:09;17.50;;;11.90;;
52942;SDS011;38809;53.300;6.614;2024-03-06T06:58:36;18.00;;;13.00;;
52942;SDS011;38809;53.300;6.614;2024-03-06T07:01:02;16.75;;;12.48;;
52942;SDS011;38809;53.300;6.614;2024-03-06T07:03:29;18.70;;;13.57;;
52942;SDS011;38809;53.300;6.614;2024-03-06T07:08:22;18.83;;;12.90;;
52942;SDS011;38809;53.300;6.614;2024-03-06T07:10:48;17.85;;;12.57;;
52942;SDS011;38809;53.300;6.614;2024-03-06T07:13:15;19.20;;;12.57;;
52942;SDS011;38809;53.300;6.614;2024-03-06T07:15:42;18.80;;;13.55;;
52942;SDS011;38809;53.300;6.614;2024-03-06T07:18:09;17.63;;;12.65;;
52942;SDS011;38809;53.300;6.614;2024-03-06T07:20:35;18.75;;;13.93;;
52942;SDS011;38809;53.300;6.614;2024-03-06T07:23:01;16.05;;;12.07;;
52942;SDS011;38809;53.300;6.614;2024-03-06T07:25:27;17.83;;;11.77;;
52942;SDS011;38809;53.300;6.614;2024-03-06T07:27:53;17.17;;;13.23;;
52942;SDS011;38809;53.300;6.614;2024-03-06T07:30:19;20.08;;;13.57;;
52942;SDS011;38809;53.300;6.614;2024-03-06T07:32:46;19.08;;;12.75;;
52942;SDS011;38809;53.300;6.614;2024-03-06T07:35:13;16.20;;;12.93;;
52942;SDS011;38809;53.300;6.614;2024-03-06T07:37:39;17.90;;;13.10;;
52942;SDS011;38809;53.300;6.614;2024-03-06T07:40:08;17.95;;;12.90;;
52942;SDS011;38809;53.300;6.614;2024-03-06T07:42:34;18.63;;;12.65;;
52942;SDS011;38809;53.300;6.614;2024-03-06T07:45:00;18.63;;;13.10;;
52942;SDS011;38809;53.300;6.614;2024-03-06T07:47:27;20.77;;;13.35;;
52942;SDS011;38809;53.300;6.614;2024-03-06T07:49:53;18.38;;;13.70;;
52942;SDS011;38809;53.300;6.614;2024-03-06T07:52:19;19.27;;;12.88;;
52942;SDS011;38809;53.300;6.614;2024-03-06T07:54:46;17.05;;;13.23;;
52942;SDS011;38809;53.300;6.614;2024-03-06T07:57:12;15.75;;;11.98;;
52942;SDS011;38809;53.300;6.614;2024-03-06T07:59:38;19.70;;;13.45;;
52942;SDS011;38809;53.300;6.614;2024-03-06T08:02:05;17.30;;;11.63;;
52942;SDS011;38809;53.300;6.614;2024-03-06T08:06:57;16.42;;;11.13;;
52942;SDS011;38809;53.300;6.614;2024-03-06T08:09:23;18.40;;;13.30;;
52942;SDS011;38809;53.300;6.614;2024-03-06T08:11:53;18.83;;;13.05;;
52942;SDS011;38809;53.300;6.614;2024-03-06T08:14:20;18.65;;;12.07;;
52942;SDS011;38809;53.300;6.614;2024-03-06T08:16:46;20.15;;;13.20;;
52942;SDS011;38809;53.300;6.614;2024-03-06T08:19:12;23.27;;;14.10;;
52942;SDS011;38809;53.300;6.614;2024-03-06T08:21:38;16.77;;;12.38;;
52942;SDS011;38809;53.300;6.614;2024-03-06T08:24:05;16.48;;;12.75;;
52942;SDS011;38809;53.300;6.614;2024-03-06T08:26:31;18.48;;;12.90;;
52942;SDS011;38809;53.300;6.614;2024-03-06T08:28:57;17.67;;;12.95;;
52942;SDS011;38809;53.300;6.614;2024-03-06T08:31:23;18.27;;;13.10;;
52942;SDS011;38809;53.300;6.614;2024-03-06T08:33:50;18.67;;;13.10;;
52942;SDS011;38809;53.300;6.614;2024-03-06T08:36:18;18.95;;;13.75;;
52942;SDS011;38809;53.300;6.614;2024-03-06T08:38:44;15.95;;;11.90;;
52942;SDS011;38809;53.300;6.614;2024-03-06T08:41:10;18.90;;;13.50;;
52942;SDS011;38809;53.300;6.614;2024-03-06T08:43:37;16.95;;;12.43;;
52942;SDS011;38809;53.300;6.614;2024-03-06T08:46:03;18.67;;;12.98;;
52942;SDS011;38809;53.300;6.614;2024-03-06T08:48:30;19.38;;;12.85;;
52942;SDS011;38809;53.300;6.614;2024-03-06T08:50:56;19.92;;;12.98;;
52942;SDS011;38809;53.300;6.614;2024-03-06T08:53:22;17.67;;;12.93;;
52942;SDS011;38809;53.300;6.614;2024-03-06T08:55:48;17.63;;;12.95;;
52942;SDS011;38809;53.300;6.614;2024-03-06T08:58:14;17.90;;;12.63;;
52942;SDS011;38809;53.300;6.614;2024-03-06T09:00:40;18.65;;;12.80;;
52942;SDS011;38809;53.300;6.614;2024-03-06T09:03:07;19.27;;;13.27;;
52942;SDS011;38809;53.300;6.614;2024-03-06T09:05:33;20.42;;;12.85;;
52942;SDS011;38809;53.300;6.614;2024-03-06T09:07:59;19.95;;;13.77;;
52942;SDS011;38809;53.300;6.614;2024-03-06T09:10:25;17.92;;;12.55;;
52942;SDS011;38809;53.300;6.614;2024-03-06T09:12:51;18.67;;;14.05;;
52942;SDS011;38809;53.300;6.614;2024-03-06T09:15:17;17.98;;;12.82;;
52942;SDS011;38809;53.300;6.614;2024-03-06T09:17:44;17.52;;;12.93;;
52942;SDS011;38809;53.300;6.614;2024-03-06T09:20:11;20.27;;;13.57;;
52942;SDS011;38809;53.300;6.614;2024-03-06T09:22:38;20.48;;;13.85;;
52942;SDS011;38809;53.300;6.614;2024-03-06T09:25:04;19.08;;;13.45;;
52942;SDS011;38809;53.300;6.614;2024-03-06T09:27:31;19.52;;;13.82;;
52942;SDS011;38809;53.300;6.614;2024-03-06T09:29:57;16.20;;;12.70;;
52942;SDS011;38809;53.300;6.614;2024-03-06T09:32:23;17.73;;;12.98;;
52942;SDS011;38809;53.300;6.614;2024-03-06T09:34:51;19.38;;;12.90;;
52942;SDS011;38809;53.300;6.614;2024-03-06T09:37:17;16.58;;;12.52;;
52942;SDS011;38809;53.300;6.614;2024-03-06T09:39:44;18.00;;;13.32;;
52942;SDS011;38809;53.300;6.614;2024-03-06T09:42:13;19.02;;;12.82;;
52942;SDS011;38809;53.300;6.614;2024-03-06T09:44:41;19.10;;;13.93;;
52942;SDS011;38809;53.300;6.614;2024-03-06T09:49:34;21.63;;;13.40;;
52942;SDS011;38809;53.300;6.614;2024-03-06T09:52:00;18.23;;;13.10;;
52942;SDS011;38809;53.300;6.614;2024-03-06T09:54:29;16.48;;;12.65;;
52942;SDS011;38809;53.300;6.614;2024-03-06T09:56:55;18.55;;;13.50;;
52942;SDS011;38809;53.300;6.614;2024-03-06T09:59:23;21.05;;;14.52;;
52942;SDS011;38809;53.300;6.614;2024-03-06T10:01:51;20.95;;;14.50;;
52942;SDS011;38809;53.300;6.614;2024-03-06T10:04:22;19.60;;;14.00;;
52942;SDS011;38809;53.300;6.614;2024-03-06T10:06:50;20.33;;;13.63;;
52942;SDS011;38809;53.300;6.614;2024-03-06T10:09:16;20.38;;;13.77;;
52942;SDS011;38809;53.300;6.614;2024-03-06T10:11:43;20.75;;;14.00;;
52942;SDS011;38809;53.300;6.614;2024-03-06T10:14:09;17.75;;;13.48;;
52942;SDS011;38809;53.300;6.614;2024-03-06T10:16:35;19.65;;;14.48;;
52942;SDS011;38809;53.300;6.614;2024-03-06T10:19:17;20.45;;;13.77;;
52942;SDS011;38809;53.300;6.614;2024-03-06T10:21:44;21.45;;;14.80;;
52942;SDS011;38809;53.300;6.614;2024-03-06T10:26:36;20.05;;;13.90;;
52942;SDS011;38809;53.300;6.614;2024-03-06T10:29:02;18.02;;;12.50;;
52942;SDS011;38809;53.300;6.614;2024-03-06T10:31:28;18.60;;;14.02;;
52942;SDS011;38809;53.300;6.614;2024-03-06T10:33:54;19.88;;;14.63;;
52942;SDS011;38809;53.300;6.614;2024-03-06T10:36:21;21.15;;;14.65;;
52942;SDS011;38809;53.300;6.614;2024-03-06T10:38:48;19.98;;;15.18;;
52942;SDS011;38809;53.300;6.614;2024-03-06T10:41:17;21.65;;;14.50;;
52942;SDS011;38809;53.300;6.614;2024-03-06T10:43:49;20.92;;;15.07;;
52942;SDS011;38809;53.300;6.614;2024-03-06T10:48:42;22.67;;;15.02;;
52942;SDS011;38809;53.300;6.614;2024-03-06T10:53:35;18.10;;;13.52;;
52942;SDS011;38809;53.300;6.614;2024-03-06T10:56:02;22.10;;;14.57;;
52942;SDS011;38809;53.300;6.614;2024-03-06T10:58:29;23.33;;;15.57;;
52942;SDS011;38809;53.300;6.614;2024-03-06T11:03:23;23.90;;;15.25;;
52942;SDS011;38809;53.300;6.614;2024-03-06T11:05:49;25.65;;;16.45;;
52942;SDS011;38809;53.300;6.614;2024-03-06T11:08:16;24.63;;;16.13;;
52942;SDS011;38809;53.300;6.614;2024-03-06T11:10:43;22.08;;;15.40;;
52942;SDS011;38809;53.300;6.614;2024-03-06T11:13:22;24.00;;;15.52;;
52942;SDS011;38809;53.300;6.614;2024-03-06T11:15:49;22.63;;;15.93;;
52942;SDS011;38809;53.300;6.614;2024-03-06T11:20:59;23.95;;;16.70;;
52942;SDS011;38809;53.300;6.614;2024-03-06T11:23:25;28.33;;;17.83;;
52942;SDS011;38809;53.300;6.614;2024-03-06T11:28:27;21.70;;;16.38;;
52942;SDS011;38809;53.300;6.614;2024-03-06T11:33:20;21.83;;;15.50;;
52942;SDS011;38809;53.300;6.614;2024-03-06T11:38:30;21.92;;;15.45;;
52942;SDS011;38809;53.300;6.614;2024-03-06T11:40:57;22.42;;;15.40;;
52942;SDS011;38809;53.300;6.614;2024-03-06T11:45:50;20.67;;;15.30;;
52942;SDS011;38809;53.300;6.614;2024-03-06T11:48:16;23.15;;;15.70;;
52942;SDS011;38809;53.300;6.614;2024-03-06T11:50:42;24.27;;;15.18;;
52942;SDS011;38809;53.300;6.614;2024-03-06T11:53:08;25.52;;;16.67;;
52942;SDS011;38809;53.300;6.614;2024-03-06T11:55:34;23.85;;;16.58;;
52942;SDS011;38809;53.300;6.614;2024-03-06T11:58:01;22.88;;;15.93;;
52942;SDS011;38809;53.300;6.614;2024-03-06T12:00:29;24.52;;;16.88;;
52942;SDS011;38809;53.300;6.614;2024-03-06T12:02:56;22.50;;;17.08;;
52942;SDS011;38809;53.300;6.614;2024-03-06T12:05:22;21.63;;;15.77;;
52942;SDS011;38809;53.300;6.614;2024-03-06T12:07:50;23.15;;;17.15;;
52942;SDS011;38809;53.300;6.614;2024-03-06T12:10:16;20.88;;;15.20;;
52942;SDS011;38809;53.300;6.614;2024-03-06T12:12:46;24.10;;;17.00;;
52942;SDS011;38809;53.300;6.614;2024-03-06T12:15:13;27.13;;;17.67;;
52942;SDS011;38809;53.300;6.614;2024-03-06T12:17:47;24.17;;;16.40;;
52942;SDS011;38809;53.300;6.614;2024-03-06T12:20:17;26.15;;;16.88;;
52942;SDS011;38809;53.300;6.614;2024-03-06T12:22:52;22.50;;;15.75;;
52942;SDS011;38809;53.300;6.614;2024-03-06T12:25:21;23.33;;;16.30;;
52942;SDS011;38809;53.300;6.614;2024-03-06T12:27:48;22.95;;;16.58;;
52942;SDS011;38809;53.300;6.614;2024-03-06T12:30:17;22.63;;;16.30;;
52942;SDS011;38809;53.300;6.614;2024-03-06T12:32:55;23.52;;;15.93;;
52942;SDS011;38809;53.300;6.614;2024-03-06T12:35:25;23.50;;;16.73;;
52942;SDS011;38809;53.300;6.614;2024-03-06T12:37:51;25.45;;;17.15;;
52942;SDS011;38809;53.300;6.614;2024-03-06T12:40:18;23.45;;;16.92;;
52942;SDS011;38809;53.300;6.614;2024-03-06T12:45:13;22.88;;;16.58;;
52942;SDS011;38809;53.300;6.614;2024-03-06T12:47:43;24.60;;;17.13;;
52942;SDS011;38809;53.300;6.614;2024-03-06T12:50:10;26.40;;;17.50;;
52942;SDS011;38809;53.300;6.614;2024-03-06T12:52:37;26.10;;;17.13;;
52942;SDS011;38809;53.300;6.614;2024-03-06T12:57:30;27.27;;;17.50;;
52942;SDS011;38809;53.300;6.614;2024-03-06T12:59:57;31.08;;;18.48;;
52942;SDS011;38809;53.300;6.614;2024-03-06T13:02:23;26.02;;;17.65;;
52942;SDS011;38809;53.300;6.614;2024-03-06T13:07:15;27.25;;;18.02;;
52942;SDS011;38809;53.300;6.614;2024-03-06T13:09:41;25.95;;;18.23;;
52942;SDS011;38809;53.300;6.614;2024-03-06T13:12:08;27.40;;;18.95;;
52942;SDS011;38809;53.300;6.614;2024-03-06T13:14:34;27.50;;;17.70;;
52942;SDS011;38809;53.300;6.614;2024-03-06T13:17:00;27.50;;;18.73;;
52942;SDS011;38809;53.300;6.614;2024-03-06T13:19:27;27.30;;;18.48;;
52942;SDS011;38809;53.300;6.614;2024-03-06T13:21:53;27.95;;;19.33;;
52942;SDS011;38809;53.300;6.614;2024-03-06T13:24:19;26.80;;;18.80;;
52942;SDS011;38809;53.300;6.614;2024-03-06T13:26:46;28.65;;;19.83;;
52942;SDS011;38809;53.300;6.614;2024-03-06T13:29:12;28.48;;;19.25;;
52942;SDS011;38809;53.300;6.614;2024-03-06T13:31:39;28.67;;;19.00;;
52942;SDS011;38809;53.300;6.614;2024-03-06T13:34:05;24.23;;;17.55;;
52942;SDS011;38809;53.300;6.614;2024-03-06T13:36:32;29.58;;;19.73;;
52942;SDS011;38809;53.300;6.614;2024-03-06T13:38:58;26.90;;;18.63;;
52942;SDS011;38809;53.300;6.614;2024-03-06T13:41:25;33.08;;;20.20;;
52942;SDS011;38809;53.300;6.614;2024-03-06T13:43:51;26.75;;;19.52;;
52942;SDS011;38809;53.300;6.614;2024-03-06T13:46:17;26.88;;;19.60;;
52942;SDS011;38809;53.300;6.614;2024-03-06T13:48:44;28.70;;;20.08;;
52942;SDS011;38809;53.300;6.614;2024-03-06T13:51:10;28.02;;;19.30;;
52942;SDS011;38809;53.300;6.614;2024-03-06T13:53:36;30.50;;;19.98;;
52942;SDS011;38809;53.300;6.614;2024-03-06T13:56:02;28.50;;;20.23;;
52942;SDS011;38809;53.300;6.614;2024-03-06T13:58:28;25.85;;;17.17;;
52942;SDS011;38809;53.300;6.614;2024-03-06T14:00:54;25.88;;;18.58;;
52942;SDS011;38809;53.300;6.614;2024-03-06T14:03:20;28.35;;;19.73;;
52942;SDS011;38809;53.300;6.614;2024-03-06T14:05:47;26.83;;;19.05;;
52942;SDS011;38809;53.300;6.614;2024-03-06T14:08:13;26.23;;;19.17;;
52942;SDS011;38809;53.300;6.614;2024-03-06T14:10:41;25.70;;;17.58;;
52942;SDS011;38809;53.300;6.614;2024-03-06T14:13:07;26.67;;;19.67;;
52942;SDS011;38809;53.300;6.614;2024-03-06T14:15:34;27.38;;;18.48;;
52942;SDS011;38809;53.300;6.614;2024-03-06T14:18:00;27.00;;;18.00;;
52942;SDS011;38809;53.300;6.614;2024-03-06T14:20:27;24.65;;;17.88;;
52942;SDS011;38809;53.300;6.614;2024-03-06T14:22:53;24.75;;;17.80;;
52942;SDS011;38809;53.300;6.614;2024-03-06T14:25:19;23.67;;;17.83;;
52942;SDS011;38809;53.300;6.614;2024-03-06T14:27:46;25.25;;;18.00;;
52942;SDS011;38809;53.300;6.614;2024-03-06T14:30:12;28.55;;;19.00;;
52942;SDS011;38809;53.300;6.614;2024-03-06T14:32:40;25.52;;;18.30;;
52942;SDS011;38809;53.300;6.614;2024-03-06T14:37:32;28.48;;;19.35;;
52942;SDS011;38809;53.300;6.614;2024-03-06T14:39:58;30.17;;;20.27;;
52942;SDS011;38809;53.300;6.614;2024-03-06T14:42:25;30.40;;;19.65;;
52942;SDS011;38809;53.300;6.614;2024-03-06T14:44:51;25.73;;;19.77;;
52942;SDS011;38809;53.300;6.614;2024-03-06T14:49:43;27.23;;;18.83;;
52942;SDS011;38809;53.300;6.614;2024-03-06T14:52:10;28.73;;;19.35;;
52942;SDS011;38809;53.300;6.614;2024-03-06T14:54:37;28.67;;;20.27;;
52942;SDS011;38809;53.300;6.614;2024-03-06T14:57:03;29.65;;;20.60;;
52942;SDS011;38809;53.300;6.614;2024-03-06T14:59:30;28.10;;;19.42;;
52942;SDS011;38809;53.300;6.614;2024-03-06T15:01:57;26.02;;;19.02;;
52942;SDS011;38809;53.300;6.614;2024-03-06T15:04:23;27.45;;;19.63;;
52942;SDS011;38809;53.300;6.614;2024-03-06T15:06:49;29.10;;;19.48;;
52942;SDS011;38809;53.300;6.614;2024-03-06T15:11:47;29.45;;;19.48;;